sensor_id;sensor_type;location;lat;lon;timestamp;P1;durP1;ratioP1;P2;durP2;ratioP2
54705;SDS011;40603;48.774;8.916;2023-08-12T00:00:01;7.53;;;4.63;;
54705;SDS011;40603;48.774;8.916;2023-08-12T00:02:36;7.65;;;5.00;;
54705;SDS011;40603;48.774;8.916;2023-08-12T00:05:02;8.95;;;5.20;;
54705;SDS011;40603;48.774;8.916;2023-08-12T00:07:28;8.32;;;5.40;;
54705;SDS011;40603;48.774;8.916;2023-08-12T00:09:53;8.88;;;5.20;;
54705;SDS011;40603;48.774;8.916;2023-08-12T00:12:21;11.77;;;5.60;;
54705;SDS011;40603;48.774;8.916;2023-08-12T00:14:46;8.77;;;5.05;;
54705;SDS011;40603;48.774;8.916;2023-08-12T00:17:11;9.90;;;6.05;;
54705;SDS011;40603;48.774;8.916;2023-08-12T00:19:36;11.27;;;6.38;;
54705;SDS011;40603;48.774;8.916;2023-08-12T00:22:02;8.20;;;5.63;;
54705;SDS011;40603;48.774;8.916;2023-08-12T00:24:29;17.13;;;5.43;;
54705;SDS011;40603;48.774;8.916;2023-08-12T00:26:54;8.93;;;6.18;;
54705;SDS011;40603;48.774;8.916;2023-08-12T00:29:19;16.33;;;6.55;;
54705;SDS011;40603;48.774;8.916;2023-08-12T00:31:45;7.78;;;5.68;;
54705;SDS011;40603;48.774;8.916;2023-08-12T00:34:10;8.55;;;6.40;;
54705;SDS011;40603;48.774;8.916;2023-08-12T00:36:35;10.05;;;6.22;;
54705;SDS011;40603;48.774;8.916;2023-08-12T00:39:02;9.10;;;5.88;;
54705;SDS011;40603;48.774;8.916;2023-08-12T00:41:28;7.90;;;5.78;;
54705;SDS011;40603;48.774;8.916;2023-08-12T00:43:54;7.40;;;5.22;;
54705;SDS011;40603;48.774;8.916;2023-08-12T00:46:19;10.85;;;6.13;;
54705;SDS011;40603;48.774;8.916;2023-08-12T00:48:44;10.50;;;6.00;;
54705;SDS011;40603;48.774;8.916;2023-08-12T00:51:10;10.45;;;5.35;;
54705;SDS011;40603;48.774;8.916;2023-08-12T00:53:35;11.23;;;6.10;;
54705;SDS011;40603;48.774;8.916;2023-08-12T00:56:01;17.10;;;7.13;;
54705;SDS011;40603;48.774;8.916;2023-08-12T00:58:26;9.27;;;6.78;;
54705;SDS011;40603;48.774;8.916;2023-08-12T01:00:51;8.05;;;5.82;;
54705;SDS011;40603;48.774;8.916;2023-08-12T01:03:17;11.02;;;5.72;;
54705;SDS011;40603;48.774;8.916;2023-08-12T01:05:42;5.88;;;4.90;;
54705;SDS011;40603;48.774;8.916;2023-08-12T01:08:08;12.88;;;5.72;;
54705;SDS011;40603;48.774;8.916;2023-08-12T01:10:34;8.23;;;5.32;;
54705;SDS011;40603;48.774;8.916;2023-08-12T01:13:14;9.80;;;5.40;;
54705;SDS011;40603;48.774;8.916;2023-08-12T01:15:44;7.43;;;5.30;;
54705;SDS011;40603;48.774;8.916;2023-08-12T01:18:11;7.05;;;4.78;;
54705;SDS011;40603;48.774;8.916;2023-08-12T01:20:37;14.88;;;5.28;;
54705;SDS011;40603;48.774;8.916;2023-08-12T01:23:13;9.63;;;5.07;;
54705;SDS011;40603;48.774;8.916;2023-08-12T01:25:39;6.78;;;4.88;;
54705;SDS011;40603;48.774;8.916;2023-08-12T01:28:05;6.05;;;4.97;;
54705;SDS011;40603;48.774;8.916;2023-08-12T01:30:32;6.55;;;4.82;;
54705;SDS011;40603;48.774;8.916;2023-08-12T01:33:02;7.70;;;4.68;;
54705;SDS011;40603;48.774;8.916;2023-08-12T01:35:35;9.18;;;5.32;;
54705;SDS011;40603;48.774;8.916;2023-08-12T01:38:02;9.50;;;5.63;;
54705;SDS011;40603;48.774;8.916;2023-08-12T01:40:29;9.45;;;5.28;;
54705;SDS011;40603;48.774;8.916;2023-08-12T01:42:54;7.90;;;5.47;;
54705;SDS011;40603;48.774;8.916;2023-08-12T01:45:20;7.32;;;5.60;;
54705;SDS011;40603;48.774;8.916;2023-08-12T01:47:45;8.55;;;5.30;;
54705;SDS011;40603;48.774;8.916;2023-08-12T01:50:11;10.88;;;6.10;;
54705;SDS011;40603;48.774;8.916;2023-08-12T01:52:36;6.45;;;4.70;;
54705;SDS011;40603;48.774;8.916;2023-08-12T01:55:01;6.30;;;5.20;;
54705;SDS011;40603;48.774;8.916;2023-08-12T01:57:27;6.32;;;4.60;;
54705;SDS011;40603;48.774;8.916;2023-08-12T01:59:52;7.95;;;5.28;;
54705;SDS011;40603;48.774;8.916;2023-08-12T02:02:17;11.00;;;4.72;;
54705;SDS011;40603;48.774;8.916;2023-08-12T02:04:43;9.52;;;5.10;;
54705;SDS011;40603;48.774;8.916;2023-08-12T02:07:09;6.35;;;4.97;;
54705;SDS011;40603;48.774;8.916;2023-08-12T02:09:34;9.95;;;4.70;;
54705;SDS011;40603;48.774;8.916;2023-08-12T02:11:59;8.55;;;5.43;;
54705;SDS011;40603;48.774;8.916;2023-08-12T02:14:25;6.80;;;4.85;;
54705;SDS011;40603;48.774;8.916;2023-08-12T02:16:50;9.07;;;4.65;;
54705;SDS011;40603;48.774;8.916;2023-08-12T02:19:16;8.02;;;4.30;;
54705;SDS011;40603;48.774;8.916;2023-08-12T02:21:41;5.85;;;4.75;;
54705;SDS011;40603;48.774;8.916;2023-08-12T02:24:07;7.90;;;5.18;;
54705;SDS011;40603;48.774;8.916;2023-08-12T02:26:33;8.25;;;4.82;;
54705;SDS011;40603;48.774;8.916;2023-08-12T02:28:58;8.82;;;5.53;;
54705;SDS011;40603;48.774;8.916;2023-08-12T02:31:23;7.07;;;5.20;;
54705;SDS011;40603;48.774;8.916;2023-08-12T02:33:49;8.05;;;4.60;;
54705;SDS011;40603;48.774;8.916;2023-08-12T02:36:14;10.07;;;4.90;;
54705;SDS011;40603;48.774;8.916;2023-08-12T02:38:40;13.30;;;5.28;;
54705;SDS011;40603;48.774;8.916;2023-08-12T02:41:05;7.22;;;4.93;;
54705;SDS011;40603;48.774;8.916;2023-08-12T02:43:30;11.05;;;5.38;;
54705;SDS011;40603;48.774;8.916;2023-08-12T02:45:56;5.93;;;4.78;;
54705;SDS011;40603;48.774;8.916;2023-08-12T02:48:21;10.05;;;5.30;;
54705;SDS011;40603;48.774;8.916;2023-08-12T02:50:46;5.82;;;4.45;;
54705;SDS011;40603;48.774;8.916;2023-08-12T02:53:12;10.20;;;5.35;;
54705;SDS011;40603;48.774;8.916;2023-08-12T02:55:37;9.18;;;5.22;;
54705;SDS011;40603;48.774;8.916;2023-08-12T02:58:03;6.47;;;5.13;;
54705;SDS011;40603;48.774;8.916;2023-08-12T03:00:28;8.38;;;5.38;;
54705;SDS011;40603;48.774;8.916;2023-08-12T03:02:53;6.40;;;5.28;;
54705;SDS011;40603;48.774;8.916;2023-08-12T03:05:19;9.77;;;5.47;;
54705;SDS011;40603;48.774;8.916;2023-08-12T03:07:45;6.72;;;5.53;;
54705;SDS011;40603;48.774;8.916;2023-08-12T03:10:10;11.10;;;5.28;;
54705;SDS011;40603;48.774;8.916;2023-08-12T03:12:35;7.07;;;5.57;;
54705;SDS011;40603;48.774;8.916;2023-08-12T03:15:01;8.93;;;5.07;;
54705;SDS011;40603;48.774;8.916;2023-08-12T03:17:27;5.55;;;4.38;;
54705;SDS011;40603;48.774;8.916;2023-08-12T03:19:52;6.00;;;5.22;;
54705;SDS011;40603;48.774;8.916;2023-08-12T03:22:19;10.50;;;4.95;;
54705;SDS011;40603;48.774;8.916;2023-08-12T03:24:45;8.85;;;5.03;;
54705;SDS011;40603;48.774;8.916;2023-08-12T03:27:10;5.53;;;4.90;;
54705;SDS011;40603;48.774;8.916;2023-08-12T03:29:35;6.10;;;4.97;;
54705;SDS011;40603;48.774;8.916;2023-08-12T03:32:00;8.15;;;5.00;;
54705;SDS011;40603;48.774;8.916;2023-08-12T03:34:27;6.72;;;4.97;;
54705;SDS011;40603;48.774;8.916;2023-08-12T03:36:54;8.10;;;5.28;;
54705;SDS011;40603;48.774;8.916;2023-08-12T03:39:19;9.25;;;5.22;;
54705;SDS011;40603;48.774;8.916;2023-08-12T03:41:44;7.03;;;5.78;;
54705;SDS011;40603;48.774;8.916;2023-08-12T03:44:10;8.20;;;4.68;;
54705;SDS011;40603;48.774;8.916;2023-08-12T03:46:35;6.40;;;5.10;;
54705;SDS011;40603;48.774;8.916;2023-08-12T03:49:00;7.43;;;5.18;;
54705;SDS011;40603;48.774;8.916;2023-08-12T03:51:26;5.65;;;4.85;;
54705;SDS011;40603;48.774;8.916;2023-08-12T03:53:51;8.27;;;6.18;;
54705;SDS011;40603;48.774;8.916;2023-08-12T03:56:16;6.90;;;5.78;;
54705;SDS011;40603;48.774;8.916;2023-08-12T03:58:42;9.55;;;4.78;;
54705;SDS011;40603;48.774;8.916;2023-08-12T04:01:08;13.18;;;5.22;;
54705;SDS011;40603;48.774;8.916;2023-08-12T04:03:33;8.43;;;5.32;;
54705;SDS011;40603;48.774;8.916;2023-08-12T04:05:58;6.50;;;4.93;;
54705;SDS011;40603;48.774;8.916;2023-08-12T04:08:24;8.00;;;5.35;;
54705;SDS011;40603;48.774;8.916;2023-08-12T04:10:50;8.50;;;5.35;;
54705;SDS011;40603;48.774;8.916;2023-08-12T04:13:16;8.18;;;5.20;;
54705;SDS011;40603;48.774;8.916;2023-08-12T04:15:41;6.38;;;5.22;;
54705;SDS011;40603;48.774;8.916;2023-08-12T04:18:07;14.85;;;5.63;;
54705;SDS011;40603;48.774;8.916;2023-08-12T04:20:32;7.80;;;5.18;;
54705;SDS011;40603;48.774;8.916;2023-08-12T04:22:57;6.63;;;5.18;;
54705;SDS011;40603;48.774;8.916;2023-08-12T04:25:23;7.32;;;5.40;;
54705;SDS011;40603;48.774;8.916;2023-08-12T04:27:48;7.75;;;4.97;;
54705;SDS011;40603;48.774;8.916;2023-08-12T04:30:15;10.38;;;5.90;;
54705;SDS011;40603;48.774;8.916;2023-08-12T04:32:41;8.68;;;5.28;;
54705;SDS011;40603;48.774;8.916;2023-08-12T04:35:06;12.50;;;5.45;;
54705;SDS011;40603;48.774;8.916;2023-08-12T04:37:32;7.95;;;5.15;;
54705;SDS011;40603;48.774;8.916;2023-08-12T04:39:57;7.55;;;5.40;;
54705;SDS011;40603;48.774;8.916;2023-08-12T04:42:23;8.68;;;5.47;;
54705;SDS011;40603;48.774;8.916;2023-08-12T04:44:48;7.47;;;5.65;;
54705;SDS011;40603;48.774;8.916;2023-08-12T04:47:14;10.73;;;5.80;;
54705;SDS011;40603;48.774;8.916;2023-08-12T04:49:39;7.93;;;5.68;;
54705;SDS011;40603;48.774;8.916;2023-08-12T04:52:04;11.00;;;5.20;;
54705;SDS011;40603;48.774;8.916;2023-08-12T04:54:31;7.22;;;5.72;;
54705;SDS011;40603;48.774;8.916;2023-08-12T04:56:57;8.85;;;5.47;;
54705;SDS011;40603;48.774;8.916;2023-08-12T04:59:22;11.02;;;5.65;;
54705;SDS011;40603;48.774;8.916;2023-08-12T05:01:47;8.45;;;5.93;;
54705;SDS011;40603;48.774;8.916;2023-08-12T05:04:13;8.23;;;5.65;;
54705;SDS011;40603;48.774;8.916;2023-08-12T05:06:38;7.85;;;5.55;;
54705;SDS011;40603;48.774;8.916;2023-08-12T05:09:03;10.50;;;6.57;;
54705;SDS011;40603;48.774;8.916;2023-08-12T05:11:29;9.90;;;6.72;;
54705;SDS011;40603;48.774;8.916;2023-08-12T05:13:54;8.70;;;6.30;;
54705;SDS011;40603;48.774;8.916;2023-08-12T05:16:19;10.07;;;6.80;;
54705;SDS011;40603;48.774;8.916;2023-08-12T05:18:45;10.27;;;5.88;;
54705;SDS011;40603;48.774;8.916;2023-08-12T05:21:10;7.63;;;6.43;;
54705;SDS011;40603;48.774;8.916;2023-08-12T05:23:35;17.00;;;6.30;;
54705;SDS011;40603;48.774;8.916;2023-08-12T05:26:01;10.25;;;7.03;;
54705;SDS011;40603;48.774;8.916;2023-08-12T05:28:26;12.10;;;6.18;;
54705;SDS011;40603;48.774;8.916;2023-08-12T05:30:51;7.97;;;6.15;;
54705;SDS011;40603;48.774;8.916;2023-08-12T05:33:19;11.85;;;6.10;;
54705;SDS011;40603;48.774;8.916;2023-08-12T05:35:46;9.35;;;6.35;;
54705;SDS011;40603;48.774;8.916;2023-08-12T05:38:12;6.45;;;5.60;;
54705;SDS011;40603;48.774;8.916;2023-08-12T05:40:37;12.15;;;7.38;;
54705;SDS011;40603;48.774;8.916;2023-08-12T05:43:03;10.68;;;6.70;;
54705;SDS011;40603;48.774;8.916;2023-08-12T05:45:28;10.38;;;6.30;;
54705;SDS011;40603;48.774;8.916;2023-08-12T05:47:53;6.63;;;5.10;;
54705;SDS011;40603;48.774;8.916;2023-08-12T05:50:19;6.35;;;5.28;;
54705;SDS011;40603;48.774;8.916;2023-08-12T05:52:44;7.93;;;6.10;;
54705;SDS011;40603;48.774;8.916;2023-08-12T05:55:09;13.45;;;6.85;;
54705;SDS011;40603;48.774;8.916;2023-08-12T05:57:35;7.35;;;6.13;;
54705;SDS011;40603;48.774;8.916;2023-08-12T06:00:00;8.95;;;6.32;;
54705;SDS011;40603;48.774;8.916;2023-08-12T06:02:25;9.95;;;7.85;;
54705;SDS011;40603;48.774;8.916;2023-08-12T06:04:51;9.73;;;7.25;;
54705;SDS011;40603;48.774;8.916;2023-08-12T06:07:17;10.55;;;6.95;;
54705;SDS011;40603;48.774;8.916;2023-08-12T06:09:43;10.55;;;7.15;;
54705;SDS011;40603;48.774;8.916;2023-08-12T06:12:08;8.13;;;6.45;;
54705;SDS011;40603;48.774;8.916;2023-08-12T06:14:36;8.98;;;6.40;;
54705;SDS011;40603;48.774;8.916;2023-08-12T06:17:02;12.75;;;7.20;;
54705;SDS011;40603;48.774;8.916;2023-08-12T06:19:27;11.07;;;6.75;;
54705;SDS011;40603;48.774;8.916;2023-08-12T06:21:52;9.57;;;6.47;;
54705;SDS011;40603;48.774;8.916;2023-08-12T06:24:18;8.25;;;6.22;;
54705;SDS011;40603;48.774;8.916;2023-08-12T06:26:43;9.98;;;6.00;;
54705;SDS011;40603;48.774;8.916;2023-08-12T06:29:08;10.73;;;6.30;;
54705;SDS011;40603;48.774;8.916;2023-08-12T06:31:34;9.48;;;5.63;;
54705;SDS011;40603;48.774;8.916;2023-08-12T06:33:59;6.82;;;5.18;;
54705;SDS011;40603;48.774;8.916;2023-08-12T06:36:24;9.00;;;5.07;;
54705;SDS011;40603;48.774;8.916;2023-08-12T06:38:50;7.93;;;5.78;;
54705;SDS011;40603;48.774;8.916;2023-08-12T06:41:15;6.95;;;5.80;;
54705;SDS011;40603;48.774;8.916;2023-08-12T06:43:40;12.73;;;5.78;;
54705;SDS011;40603;48.774;8.916;2023-08-12T06:46:05;5.93;;;5.10;;
54705;SDS011;40603;48.774;8.916;2023-08-12T06:48:31;5.88;;;4.85;;
54705;SDS011;40603;48.774;8.916;2023-08-12T06:50:56;7.65;;;5.35;;
54705;SDS011;40603;48.774;8.916;2023-08-12T06:53:21;7.65;;;5.07;;
54705;SDS011;40603;48.774;8.916;2023-08-12T06:55:47;7.38;;;5.50;;
54705;SDS011;40603;48.774;8.916;2023-08-12T06:58:15;5.88;;;4.95;;
54705;SDS011;40603;48.774;8.916;2023-08-12T07:00:41;7.68;;;5.30;;
54705;SDS011;40603;48.774;8.916;2023-08-12T07:03:07;5.95;;;5.15;;
54705;SDS011;40603;48.774;8.916;2023-08-12T07:05:32;6.25;;;5.10;;
54705;SDS011;40603;48.774;8.916;2023-08-12T07:07:57;6.82;;;4.72;;
54705;SDS011;40603;48.774;8.916;2023-08-12T07:10:23;6.78;;;4.85;;
54705;SDS011;40603;48.774;8.916;2023-08-12T07:12:48;7.05;;;4.93;;
54705;SDS011;40603;48.774;8.916;2023-08-12T07:15:13;6.63;;;5.18;;
54705;SDS011;40603;48.774;8.916;2023-08-12T07:17:38;6.80;;;4.60;;
54705;SDS011;40603;48.774;8.916;2023-08-12T07:20:04;5.07;;;4.57;;
54705;SDS011;40603;48.774;8.916;2023-08-12T07:22:31;7.80;;;4.72;;
54705;SDS011;40603;48.774;8.916;2023-08-12T07:24:56;7.45;;;4.80;;
54705;SDS011;40603;48.774;8.916;2023-08-12T07:27:24;11.68;;;5.13;;
54705;SDS011;40603;48.774;8.916;2023-08-12T07:29:50;6.80;;;5.10;;
54705;SDS011;40603;48.774;8.916;2023-08-12T07:32:15;6.00;;;4.97;;
54705;SDS011;40603;48.774;8.916;2023-08-12T07:34:40;7.22;;;4.63;;
54705;SDS011;40603;48.774;8.916;2023-08-12T07:37:06;6.70;;;5.13;;
54705;SDS011;40603;48.774;8.916;2023-08-12T07:39:31;6.65;;;4.57;;
54705;SDS011;40603;48.774;8.916;2023-08-12T07:41:56;6.03;;;4.50;;
54705;SDS011;40603;48.774;8.916;2023-08-12T07:44:21;7.15;;;4.88;;
54705;SDS011;40603;48.774;8.916;2023-08-12T07:46:47;6.18;;;4.38;;
54705;SDS011;40603;48.774;8.916;2023-08-12T07:49:12;7.78;;;4.80;;
54705;SDS011;40603;48.774;8.916;2023-08-12T07:51:37;6.53;;;4.35;;
54705;SDS011;40603;48.774;8.916;2023-08-12T07:54:03;5.25;;;4.47;;
54705;SDS011;40603;48.774;8.916;2023-08-12T07:56:28;5.35;;;4.53;;
54705;SDS011;40603;48.774;8.916;2023-08-12T07:58:53;4.88;;;4.40;;
54705;SDS011;40603;48.774;8.916;2023-08-12T08:01:19;4.20;;;3.60;;
54705;SDS011;40603;48.774;8.916;2023-08-12T08:03:44;9.60;;;4.40;;
54705;SDS011;40603;48.774;8.916;2023-08-12T08:06:09;6.35;;;4.40;;
54705;SDS011;40603;48.774;8.916;2023-08-12T08:08:35;5.60;;;4.32;;
54705;SDS011;40603;48.774;8.916;2023-08-12T08:11:00;5.43;;;3.88;;
54705;SDS011;40603;48.774;8.916;2023-08-12T08:13:25;5.78;;;4.30;;
54705;SDS011;40603;48.774;8.916;2023-08-12T08:15:51;5.55;;;4.30;;
54705;SDS011;40603;48.774;8.916;2023-08-12T08:18:16;8.15;;;4.22;;
54705;SDS011;40603;48.774;8.916;2023-08-12T08:20:42;6.32;;;4.80;;
54705;SDS011;40603;48.774;8.916;2023-08-12T08:23:07;8.90;;;5.35;;
54705;SDS011;40603;48.774;8.916;2023-08-12T08:25:33;7.05;;;4.47;;
54705;SDS011;40603;48.774;8.916;2023-08-12T08:27:58;6.05;;;4.05;;
54705;SDS011;40603;48.774;8.916;2023-08-12T08:30:23;7.30;;;4.20;;
54705;SDS011;40603;48.774;8.916;2023-08-12T08:32:50;5.57;;;4.57;;
54705;SDS011;40603;48.774;8.916;2023-08-12T08:35:16;6.50;;;3.85;;
54705;SDS011;40603;48.774;8.916;2023-08-12T08:37:41;4.13;;;3.65;;
54705;SDS011;40603;48.774;8.916;2023-08-12T08:40:07;4.95;;;4.07;;
54705;SDS011;40603;48.774;8.916;2023-08-12T08:42:33;3.97;;;3.50;;
54705;SDS011;40603;48.774;8.916;2023-08-12T08:45:00;7.63;;;3.83;;
54705;SDS011;40603;48.774;8.916;2023-08-12T08:47:26;5.43;;;3.58;;
54705;SDS011;40603;48.774;8.916;2023-08-12T08:49:53;5.13;;;3.83;;
54705;SDS011;40603;48.774;8.916;2023-08-12T08:52:20;5.63;;;3.63;;
54705;SDS011;40603;48.774;8.916;2023-08-12T08:54:45;4.70;;;3.67;;
54705;SDS011;40603;48.774;8.916;2023-08-12T08:57:11;5.30;;;3.50;;
54705;SDS011;40603;48.774;8.916;2023-08-12T08:59:37;3.60;;;3.13;;
54705;SDS011;40603;48.774;8.916;2023-08-12T09:02:02;4.65;;;3.50;;
54705;SDS011;40603;48.774;8.916;2023-08-12T09:04:28;4.32;;;3.65;;
54705;SDS011;40603;48.774;8.916;2023-08-12T09:06:55;3.50;;;3.20;;
54705;SDS011;40603;48.774;8.916;2023-08-12T09:09:20;8.57;;;3.58;;
54705;SDS011;40603;48.774;8.916;2023-08-12T09:11:48;5.57;;;3.10;;
54705;SDS011;40603;48.774;8.916;2023-08-12T09:14:14;7.43;;;3.70;;
54705;SDS011;40603;48.774;8.916;2023-08-12T09:16:39;4.13;;;3.25;;
54705;SDS011;40603;48.774;8.916;2023-08-12T09:19:05;3.33;;;3.03;;
54705;SDS011;40603;48.774;8.916;2023-08-12T09:21:30;3.20;;;2.90;;
54705;SDS011;40603;48.774;8.916;2023-08-12T09:23:55;2.92;;;2.40;;
54705;SDS011;40603;48.774;8.916;2023-08-12T09:26:21;4.00;;;2.33;;
54705;SDS011;40603;48.774;8.916;2023-08-12T09:28:47;4.38;;;2.70;;
54705;SDS011;40603;48.774;8.916;2023-08-12T09:33:48;7.28;;;2.88;;
54705;SDS011;40603;48.774;8.916;2023-08-12T09:36:13;4.22;;;2.42;;
54705;SDS011;40603;48.774;8.916;2023-08-12T09:38:39;5.18;;;2.45;;
54705;SDS011;40603;48.774;8.916;2023-08-12T09:41:04;6.93;;;2.90;;
54705;SDS011;40603;48.774;8.916;2023-08-12T09:43:30;2.80;;;2.38;;
54705;SDS011;40603;48.774;8.916;2023-08-12T09:45:56;3.28;;;2.25;;
54705;SDS011;40603;48.774;8.916;2023-08-12T09:48:25;3.13;;;2.30;;
54705;SDS011;40603;48.774;8.916;2023-08-12T09:50:51;3.85;;;2.40;;
54705;SDS011;40603;48.774;8.916;2023-08-12T09:53:17;4.13;;;2.70;;
54705;SDS011;40603;48.774;8.916;2023-08-12T09:55:42;7.00;;;2.50;;
54705;SDS011;40603;48.774;8.916;2023-08-12T09:58:08;3.78;;;2.40;;
54705;SDS011;40603;48.774;8.916;2023-08-12T10:00:35;3.67;;;2.58;;
54705;SDS011;40603;48.774;8.916;2023-08-12T10:03:00;7.07;;;2.40;;
54705;SDS011;40603;48.774;8.916;2023-08-12T10:05:30;2.88;;;2.20;;
54705;SDS011;40603;48.774;8.916;2023-08-12T10:07:57;4.85;;;2.55;;
54705;SDS011;40603;48.774;8.916;2023-08-12T10:10:23;3.22;;;2.50;;
54705;SDS011;40603;48.774;8.916;2023-08-12T10:12:49;3.42;;;2.40;;
54705;SDS011;40603;48.774;8.916;2023-08-12T10:15:14;8.38;;;2.92;;
54705;SDS011;40603;48.774;8.916;2023-08-12T10:17:40;4.97;;;2.28;;
54705;SDS011;40603;48.774;8.916;2023-08-12T10:20:07;4.53;;;2.50;;
54705;SDS011;40603;48.774;8.916;2023-08-12T10:22:33;5.95;;;2.58;;
54705;SDS011;40603;48.774;8.916;2023-08-12T10:25:01;2.45;;;2.20;;
54705;SDS011;40603;48.774;8.916;2023-08-12T10:27:28;8.68;;;2.75;;
54705;SDS011;40603;48.774;8.916;2023-08-12T10:29:55;4.45;;;2.40;;
54705;SDS011;40603;48.774;8.916;2023-08-12T10:32:21;5.40;;;1.98;;
54705;SDS011;40603;48.774;8.916;2023-08-12T10:34:46;4.82;;;2.40;;
54705;SDS011;40603;48.774;8.916;2023-08-12T10:37:19;3.00;;;2.47;;
54705;SDS011;40603;48.774;8.916;2023-08-12T10:39:45;6.75;;;2.30;;
54705;SDS011;40603;48.774;8.916;2023-08-12T10:42:10;3.45;;;2.40;;
54705;SDS011;40603;48.774;8.916;2023-08-12T10:44:39;2.60;;;2.10;;
54705;SDS011;40603;48.774;8.916;2023-08-12T10:47:15;3.10;;;2.17;;
54705;SDS011;40603;48.774;8.916;2023-08-12T10:49:47;4.93;;;2.20;;
54705;SDS011;40603;48.774;8.916;2023-08-12T10:52:26;3.88;;;2.10;;
54705;SDS011;40603;48.774;8.916;2023-08-12T10:54:53;5.40;;;2.55;;
54705;SDS011;40603;48.774;8.916;2023-08-12T10:57:18;4.00;;;2.15;;
54705;SDS011;40603;48.774;8.916;2023-08-12T10:59:59;2.38;;;2.17;;
54705;SDS011;40603;48.774;8.916;2023-08-12T11:02:29;4.40;;;2.30;;
54705;SDS011;40603;48.774;8.916;2023-08-12T11:05:02;5.82;;;2.42;;
54705;SDS011;40603;48.774;8.916;2023-08-12T11:10:12;4.65;;;2.40;;
54705;SDS011;40603;48.774;8.916;2023-08-12T11:13:02;3.55;;;2.45;;
54705;SDS011;40603;48.774;8.916;2023-08-12T11:18:06;4.78;;;2.60;;
54705;SDS011;40603;48.774;8.916;2023-08-12T11:20:33;6.45;;;2.40;;
54705;SDS011;40603;48.774;8.916;2023-08-12T11:22:59;5.25;;;2.28;;
54705;SDS011;40603;48.774;8.916;2023-08-12T11:25:25;3.40;;;2.28;;
54705;SDS011;40603;48.774;8.916;2023-08-12T11:27:53;4.53;;;2.83;;
54705;SDS011;40603;48.774;8.916;2023-08-12T11:30:19;8.45;;;2.40;;
54705;SDS011;40603;48.774;8.916;2023-08-12T11:32:45;4.38;;;2.30;;
54705;SDS011;40603;48.774;8.916;2023-08-12T11:35:13;4.60;;;2.15;;
54705;SDS011;40603;48.774;8.916;2023-08-12T11:37:40;3.60;;;2.47;;
54705;SDS011;40603;48.774;8.916;2023-08-12T11:40:07;4.63;;;2.50;;
54705;SDS011;40603;48.774;8.916;2023-08-12T11:45:03;4.28;;;3.17;;
54705;SDS011;40603;48.774;8.916;2023-08-12T11:47:28;6.30;;;3.88;;
54705;SDS011;40603;48.774;8.916;2023-08-12T11:49:54;7.60;;;3.50;;
54705;SDS011;40603;48.774;8.916;2023-08-12T11:52:19;5.00;;;3.55;;
54705;SDS011;40603;48.774;8.916;2023-08-12T11:54:45;8.60;;;3.92;;
54705;SDS011;40603;48.774;8.916;2023-08-12T11:57:10;6.22;;;3.75;;
54705;SDS011;40603;48.774;8.916;2023-08-12T11:59:36;5.10;;;3.58;;
54705;SDS011;40603;48.774;8.916;2023-08-12T12:02:02;5.45;;;3.67;;
54705;SDS011;40603;48.774;8.916;2023-08-12T12:04:28;9.27;;;4.57;;
54705;SDS011;40603;48.774;8.916;2023-08-12T12:06:55;8.98;;;5.60;;
54705;SDS011;40603;48.774;8.916;2023-08-12T12:09:21;10.63;;;5.85;;
54705;SDS011;40603;48.774;8.916;2023-08-12T12:11:46;9.32;;;6.43;;
54705;SDS011;40603;48.774;8.916;2023-08-12T12:14:11;11.18;;;6.32;;
54705;SDS011;40603;48.774;8.916;2023-08-12T12:16:37;8.63;;;5.88;;
54705;SDS011;40603;48.774;8.916;2023-08-12T12:19:12;10.35;;;5.78;;
54705;SDS011;40603;48.774;8.916;2023-08-12T12:21:40;9.30;;;6.43;;
54705;SDS011;40603;48.774;8.916;2023-08-12T12:24:06;6.93;;;6.20;;
54705;SDS011;40603;48.774;8.916;2023-08-12T12:26:32;5.60;;;4.15;;
54705;SDS011;40603;48.774;8.916;2023-08-12T12:28:57;5.85;;;3.33;;
54705;SDS011;40603;48.774;8.916;2023-08-12T12:31:23;6.85;;;3.40;;
54705;SDS011;40603;48.774;8.916;2023-08-12T12:33:48;6.43;;;3.03;;
54705;SDS011;40603;48.774;8.916;2023-08-12T12:36:13;6.97;;;4.47;;
54705;SDS011;40603;48.774;8.916;2023-08-12T12:38:38;6.90;;;4.10;;
54705;SDS011;40603;48.774;8.916;2023-08-12T12:41:04;7.20;;;3.92;;
54705;SDS011;40603;48.774;8.916;2023-08-12T12:43:29;9.20;;;3.90;;
54705;SDS011;40603;48.774;8.916;2023-08-12T12:45:54;10.27;;;4.53;;
54705;SDS011;40603;48.774;8.916;2023-08-12T12:48:20;11.18;;;5.28;;
54705;SDS011;40603;48.774;8.916;2023-08-12T12:50:45;9.77;;;4.82;;
54705;SDS011;40603;48.774;8.916;2023-08-12T12:53:10;7.55;;;4.25;;
54705;SDS011;40603;48.774;8.916;2023-08-12T12:55:36;6.70;;;3.67;;
54705;SDS011;40603;48.774;8.916;2023-08-12T12:58:01;5.15;;;2.95;;
54705;SDS011;40603;48.774;8.916;2023-08-12T13:00:27;4.60;;;2.80;;
54705;SDS011;40603;48.774;8.916;2023-08-12T13:02:52;3.83;;;2.90;;
54705;SDS011;40603;48.774;8.916;2023-08-12T13:05:17;4.22;;;2.60;;
54705;SDS011;40603;48.774;8.916;2023-08-12T13:07:42;3.78;;;2.50;;
54705;SDS011;40603;48.774;8.916;2023-08-12T13:10:08;6.28;;;3.03;;
54705;SDS011;40603;48.774;8.916;2023-08-12T13:12:33;5.40;;;2.70;;
54705;SDS011;40603;48.774;8.916;2023-08-12T13:14:59;4.38;;;2.55;;
54705;SDS011;40603;48.774;8.916;2023-08-12T13:17:24;4.75;;;2.85;;
54705;SDS011;40603;48.774;8.916;2023-08-12T13:19:49;6.70;;;3.33;;
54705;SDS011;40603;48.774;8.916;2023-08-12T13:22:14;7.13;;;3.30;;
54705;SDS011;40603;48.774;8.916;2023-08-12T13:24:40;5.32;;;3.25;;
54705;SDS011;40603;48.774;8.916;2023-08-12T13:27:05;4.82;;;2.97;;
54705;SDS011;40603;48.774;8.916;2023-08-12T13:29:32;8.10;;;3.78;;
54705;SDS011;40603;48.774;8.916;2023-08-12T13:31:58;5.97;;;2.75;;
54705;SDS011;40603;48.774;8.916;2023-08-12T13:34:23;7.72;;;3.90;;
54705;SDS011;40603;48.774;8.916;2023-08-12T13:36:48;11.70;;;2.92;;
54705;SDS011;40603;48.774;8.916;2023-08-12T13:39:14;5.95;;;2.88;;
54705;SDS011;40603;48.774;8.916;2023-08-12T13:41:39;7.53;;;3.80;;
54705;SDS011;40603;48.774;8.916;2023-08-12T13:44:04;6.75;;;3.28;;
54705;SDS011;40603;48.774;8.916;2023-08-12T13:46:30;7.43;;;3.00;;
54705;SDS011;40603;48.774;8.916;2023-08-12T13:48:55;5.05;;;3.15;;
54705;SDS011;40603;48.774;8.916;2023-08-12T13:51:20;6.15;;;3.55;;
54705;SDS011;40603;48.774;8.916;2023-08-12T13:53:45;6.43;;;3.95;;
54705;SDS011;40603;48.774;8.916;2023-08-12T13:56:11;8.55;;;3.72;;
54705;SDS011;40603;48.774;8.916;2023-08-12T13:58:36;9.85;;;4.10;;
54705;SDS011;40603;48.774;8.916;2023-08-12T14:01:01;10.07;;;4.22;;
54705;SDS011;40603;48.774;8.916;2023-08-12T14:03:27;6.85;;;3.97;;
54705;SDS011;40603;48.774;8.916;2023-08-12T14:05:52;5.68;;;3.40;;
54705;SDS011;40603;48.774;8.916;2023-08-12T14:08:18;7.05;;;3.70;;
54705;SDS011;40603;48.774;8.916;2023-08-12T14:10:45;6.35;;;3.42;;
54705;SDS011;40603;48.774;8.916;2023-08-12T14:13:11;9.48;;;3.72;;
54705;SDS011;40603;48.774;8.916;2023-08-12T14:15:36;4.60;;;3.10;;
54705;SDS011;40603;48.774;8.916;2023-08-12T14:18:01;6.55;;;3.30;;
54705;SDS011;40603;48.774;8.916;2023-08-12T14:20:27;8.15;;;3.40;;
54705;SDS011;40603;48.774;8.916;2023-08-12T14:22:52;6.53;;;3.45;;
54705;SDS011;40603;48.774;8.916;2023-08-12T14:25:17;8.13;;;4.45;;
54705;SDS011;40603;48.774;8.916;2023-08-12T14:27:43;5.65;;;2.83;;
54705;SDS011;40603;48.774;8.916;2023-08-12T14:30:08;4.97;;;2.97;;
54705;SDS011;40603;48.774;8.916;2023-08-12T14:32:34;5.45;;;2.90;;
54705;SDS011;40603;48.774;8.916;2023-08-12T14:34:59;5.32;;;3.38;;
54705;SDS011;40603;48.774;8.916;2023-08-12T14:37:25;5.95;;;3.25;;
54705;SDS011;40603;48.774;8.916;2023-08-12T14:39:50;5.93;;;3.42;;
54705;SDS011;40603;48.774;8.916;2023-08-12T14:42:15;6.00;;;3.15;;
54705;SDS011;40603;48.774;8.916;2023-08-12T14:44:41;7.20;;;3.35;;
54705;SDS011;40603;48.774;8.916;2023-08-12T14:47:06;5.25;;;2.97;;